createdAt,value
2022-09-10T00:00:33.688Z,16.60
2022-09-10T00:01:33.739Z,16.66
2022-09-10T00:02:33.771Z,16.64
2022-09-10T00:03:33.661Z,16.61
2022-09-10T00:04:33.666Z,16.65
2022-09-10T00:05:33.643Z,16.71
2022-09-10T00:06:33.635Z,16.69
2022-09-10T00:07:33.632Z,16.64
2022-09-10T00:08:33.731Z,16.74
2022-09-10T00:09:33.634Z,16.71
2022-09-10T00:10:33.616Z,16.76
2022-09-10T00:11:33.596Z,16.68
2022-09-10T00:12:33.618Z,16.76
2022-09-10T00:13:33.585Z,16.74
2022-09-10T00:14:33.618Z,16.81
2022-09-10T00:15:33.592Z,16.75
2022-09-10T00:16:33.596Z,16.74
2022-09-10T00:17:33.556Z,16.78
2022-09-10T00:18:33.547Z,16.64
2022-09-10T00:19:33.540Z,16.72
2022-09-10T00:20:33.528Z,16.64
2022-09-10T00:21:33.530Z,16.66
2022-09-10T00:22:33.513Z,16.64
2022-09-10T00:23:33.508Z,16.69
2022-09-10T00:24:33.501Z,16.68
2022-09-10T00:25:33.490Z,16.66
2022-09-10T00:26:33.826Z,16.61
2022-09-10T00:27:33.471Z,16.64
2022-09-10T00:28:33.504Z,16.56
2022-09-10T00:29:33.459Z,16.54
2022-09-10T00:31:33.662Z,16.64
2022-09-10T00:32:33.580Z,16.56
2022-09-10T00:33:33.595Z,16.64
2022-09-10T00:34:34.656Z,16.71
2022-09-10T00:35:34.652Z,16.69
2022-09-10T00:36:34.684Z,16.72
2022-09-10T00:37:34.631Z,16.68
2022-09-10T00:38:34.674Z,16.69
2022-09-10T00:39:34.676Z,16.74
2022-09-10T00:40:35.526Z,16.69
2022-09-10T00:41:34.596Z,16.74
2022-09-10T00:42:34.589Z,16.76
2022-09-10T00:43:34.581Z,16.78
2022-09-10T00:44:35.709Z,16.75
2022-09-10T00:45:35.632Z,16.75
2022-09-10T00:46:34.591Z,16.74
2022-09-10T00:47:34.559Z,16.66
2022-09-10T00:48:34.576Z,16.78
2022-09-10T00:49:34.543Z,16.68
2022-09-10T00:50:34.518Z,16.69
2022-09-10T00:51:34.514Z,16.74
2022-09-10T00:52:39.447Z,16.75
2022-09-10T00:53:36.504Z,16.74
2022-09-10T00:54:34.486Z,16.64
2022-09-10T00:55:34.478Z,16.58
2022-09-10T00:56:34.484Z,16.61
2022-09-10T00:57:34.476Z,16.49
2022-09-10T00:58:34.539Z,16.58
2022-09-10T00:59:34.461Z,16.56
2022-09-10T01:00:34.490Z,16.51
2022-09-10T01:01:34.550Z,16.56
2022-09-10T01:02:34.434Z,16.56
2022-09-10T01:03:34.421Z,16.49
2022-09-10T01:04:34.410Z,16.46
2022-09-10T01:05:34.409Z,16.43
2022-09-10T01:06:34.401Z,16.43
2022-09-10T01:07:34.399Z,16.49
2022-09-10T01:08:34.454Z,16.23
2022-09-10T01:09:34.375Z,16.28
2022-09-10T01:10:34.373Z,16.16
2022-09-10T01:11:34.944Z,16.29
2022-09-10T01:12:36.104Z,16.36
2022-09-10T01:13:35.356Z,16.15
2022-09-10T01:14:34.339Z,16.13
2022-09-10T01:15:34.332Z,16.31
2022-09-10T01:16:34.400Z,16.29
2022-09-10T01:17:34.369Z,16.24
2022-09-10T01:18:34.412Z,16.12
2022-09-10T01:19:34.310Z,16.02
2022-09-10T01:20:34.346Z,15.97
2022-09-10T01:21:35.031Z,15.98
2022-09-10T01:22:35.272Z,15.91
2022-09-10T01:23:34.272Z,15.88
2022-09-10T01:24:34.262Z,15.92
2022-09-10T01:25:34.241Z,15.80
2022-09-10T01:26:35.239Z,15.91
2022-09-10T01:27:34.231Z,15.88
2022-09-10T01:28:34.272Z,15.95
2022-09-10T01:29:34.232Z,16.00
2022-09-10T01:30:34.210Z,15.80
2022-09-10T01:31:34.289Z,15.92
2022-09-10T01:32:34.195Z,15.90
2022-09-10T01:33:34.197Z,15.94
2022-09-10T01:34:34.175Z,15.83
2022-09-10T01:35:34.175Z,15.84
2022-09-10T01:36:34.162Z,15.79
2022-09-10T01:37:34.162Z,15.75
2022-09-10T01:38:34.266Z,15.77
2022-09-10T01:39:34.230Z,15.70
2022-09-10T01:40:34.124Z,15.70
2022-09-10T01:41:34.118Z,15.70
2022-09-10T01:42:34.109Z,15.72
2022-09-10T01:43:34.111Z,15.62
2022-09-10T01:44:34.101Z,15.65
2022-09-10T01:45:34.144Z,15.58
2022-09-10T01:46:34.083Z,15.51
2022-09-10T01:47:34.072Z,15.47
2022-09-10T01:48:34.064Z,15.37
2022-09-10T01:49:34.059Z,15.40
2022-09-10T01:50:34.061Z,15.37
2022-09-10T01:51:34.034Z,15.27
2022-09-10T01:52:34.037Z,15.24
2022-09-10T01:53:34.026Z,15.35
2022-09-10T01:54:34.029Z,15.25
2022-09-10T01:55:34.004Z,15.22
2022-09-10T01:56:34.001Z,15.18
2022-09-10T01:57:33.989Z,15.19
2022-09-10T01:58:33.982Z,15.19
2022-09-10T01:59:33.978Z,15.19
2022-09-10T02:00:33.975Z,15.19
2022-09-10T02:01:33.974Z,15.24
2022-09-10T02:02:33.948Z,15.21
2022-09-10T02:03:33.941Z,15.25
2022-09-10T02:04:33.941Z,15.22
2022-09-10T02:05:33.928Z,15.25
2022-09-10T02:06:33.924Z,15.25
2022-09-10T02:07:33.908Z,15.24
2022-09-10T02:08:33.910Z,15.19
2022-09-10T02:09:33.903Z,15.18
2022-09-10T02:10:33.896Z,15.27
2022-09-10T02:11:33.885Z,15.21
2022-09-10T02:12:33.870Z,15.17
2022-09-10T02:13:33.871Z,15.25
2022-09-10T02:14:33.857Z,15.11
2022-09-10T02:15:33.860Z,15.07
2022-09-10T02:16:34.058Z,15.06
2022-09-10T02:17:33.831Z,15.18
2022-09-10T02:18:33.841Z,15.15
2022-09-10T02:19:33.816Z,15.14
2022-09-10T02:20:33.819Z,15.07
2022-09-10T02:21:33.808Z,15.14
2022-09-10T02:22:33.834Z,15.15
2022-09-10T02:23:33.785Z,15.04
2022-09-10T02:24:33.785Z,15.06
2022-09-10T02:25:33.776Z,15.00
2022-09-10T02:26:33.772Z,15.04
2022-09-10T02:27:33.761Z,15.04
2022-09-10T02:28:33.758Z,15.07
2022-09-10T02:29:33.744Z,15.06
2022-09-10T02:30:33.736Z,15.15
2022-09-10T02:31:33.762Z,15.18
2022-09-10T02:32:33.731Z,15.21
2022-09-10T02:33:33.715Z,15.21
2022-09-10T02:34:34.564Z,15.18
2022-09-10T02:35:33.701Z,15.25
2022-09-10T02:36:33.704Z,15.24
2022-09-10T02:37:34.479Z,15.33
2022-09-10T02:38:33.677Z,15.36
2022-09-10T02:39:33.694Z,15.40
2022-09-10T02:40:33.648Z,15.36
2022-09-10T02:41:33.669Z,15.37
2022-09-10T02:42:33.636Z,15.39
2022-09-10T02:43:34.556Z,15.49
2022-09-10T02:44:33.621Z,15.51
2022-09-10T02:45:33.665Z,15.51
2022-09-10T02:46:33.604Z,15.44
2022-09-10T02:47:33.601Z,15.40
2022-09-10T02:48:33.590Z,15.39
2022-09-10T02:49:33.584Z,15.42
2022-09-10T02:50:33.581Z,15.39
2022-09-10T02:51:33.570Z,15.39
2022-09-10T02:52:33.557Z,15.35
2022-09-10T02:53:33.545Z,15.44
2022-09-10T02:54:33.538Z,15.42
2022-09-10T02:55:33.529Z,15.39
2022-09-10T02:56:33.531Z,15.36
2022-09-10T02:57:33.528Z,15.40
2022-09-10T02:58:33.513Z,15.43
2022-09-10T02:59:33.501Z,15.40
2022-09-10T03:00:33.494Z,15.37
2022-09-10T03:01:33.486Z,15.25
2022-09-10T03:02:33.492Z,15.24
2022-09-10T03:03:33.475Z,15.27
2022-09-10T03:04:33.462Z,15.10
2022-09-10T03:05:33.490Z,15.11
2022-09-10T03:06:33.449Z,15.14
2022-09-10T03:07:33.445Z,15.00
2022-09-10T03:08:33.430Z,15.09
2022-09-10T03:09:33.426Z,15.02
2022-09-10T03:10:33.423Z,14.91
2022-09-10T03:11:33.408Z,15.00
2022-09-10T03:12:33.400Z,14.84
2022-09-10T03:13:33.400Z,14.86
2022-09-10T03:14:33.378Z,14.88
2022-09-10T03:15:33.373Z,14.82
2022-09-10T03:16:33.426Z,14.86
2022-09-10T03:17:33.355Z,14.94
2022-09-10T03:18:33.357Z,14.86
2022-09-10T03:19:33.336Z,14.88
2022-09-10T03:20:33.332Z,14.85
2022-09-10T03:21:33.324Z,14.88
2022-09-10T03:22:33.319Z,14.88
2022-09-10T03:23:33.312Z,14.86
2022-09-10T03:24:33.304Z,14.88
2022-09-10T03:25:33.298Z,14.88
2022-09-10T03:26:33.286Z,14.78
2022-09-10T03:27:33.272Z,14.77
2022-09-10T03:28:33.275Z,14.73
2022-09-10T03:29:33.260Z,14.73
2022-09-10T03:30:33.250Z,14.73
2022-09-10T03:31:33.271Z,14.62
2022-09-10T03:32:33.235Z,14.60
2022-09-10T03:33:33.235Z,14.63
2022-09-10T03:34:33.221Z,14.63
2022-09-10T03:35:33.206Z,14.50
2022-09-10T03:36:33.200Z,14.55
2022-09-10T03:37:33.190Z,14.59
2022-09-10T03:38:33.184Z,14.47
2022-09-10T03:39:33.232Z,14.53
2022-09-10T03:40:33.167Z,14.45
2022-09-10T03:41:33.165Z,14.60
2022-09-10T03:42:33.149Z,14.68
2022-09-10T03:43:33.147Z,14.68
2022-09-10T03:44:33.138Z,14.55
2022-09-10T03:45:33.209Z,14.68
2022-09-10T03:46:33.135Z,14.69
2022-09-10T03:47:33.111Z,14.70
2022-09-10T03:48:33.102Z,14.59
2022-09-10T03:49:33.091Z,14.63
2022-09-10T03:50:33.101Z,14.60
2022-09-10T03:51:33.083Z,14.53
2022-09-10T03:52:33.074Z,14.59
2022-09-10T03:53:33.059Z,14.51
2022-09-10T03:54:33.058Z,14.68
2022-09-10T03:55:33.081Z,14.65
2022-09-10T03:56:33.045Z,14.63
2022-09-10T03:57:33.038Z,14.51
2022-09-10T03:58:33.026Z,14.66
2022-09-10T03:59:33.014Z,14.54
2022-09-10T04:00:33.007Z,14.59
2022-09-10T04:01:33.003Z,14.68
2022-09-10T04:02:33.000Z,14.70
2022-09-10T04:03:32.990Z,14.73
2022-09-10T04:04:32.976Z,14.73
2022-09-10T04:05:32.967Z,14.70
2022-09-10T04:06:32.958Z,14.78
2022-09-10T04:07:32.950Z,14.85
2022-09-10T04:08:32.958Z,14.86
2022-09-10T04:09:32.931Z,14.88
2022-09-10T04:10:32.925Z,14.96
2022-09-10T04:11:32.916Z,15.03
2022-09-10T04:12:32.919Z,15.06
2022-09-10T04:13:33.583Z,15.02
2022-09-10T04:14:33.898Z,15.03
2022-09-10T04:15:32.883Z,15.10
2022-09-10T04:16:32.886Z,15.06
2022-09-10T04:17:32.869Z,15.11
2022-09-10T04:18:32.896Z,15.14
2022-09-10T04:19:32.852Z,15.07
2022-09-10T04:20:32.845Z,15.09
2022-09-10T04:21:32.835Z,15.18
2022-09-10T04:22:32.831Z,15.10
2022-09-10T04:23:32.837Z,15.22
2022-09-10T04:24:32.813Z,15.10
2022-09-10T04:25:32.798Z,15.09
2022-09-10T04:26:32.795Z,15.11
2022-09-10T04:27:32.781Z,15.15
2022-09-10T04:28:32.798Z,15.09
2022-09-10T04:29:32.779Z,15.17
2022-09-10T04:30:32.768Z,15.19
2022-09-10T04:31:32.788Z,15.07
2022-09-10T04:32:32.749Z,15.06
2022-09-10T04:33:32.739Z,14.92
2022-09-10T04:34:32.737Z,14.92
2022-09-10T04:35:32.721Z,14.89
2022-09-10T04:36:32.719Z,14.78
2022-09-10T04:37:32.724Z,14.70
2022-09-10T04:38:32.703Z,14.55
2022-09-10T04:39:32.737Z,14.59
2022-09-10T04:40:32.695Z,14.55
2022-09-10T04:41:33.602Z,14.59
2022-09-10T04:42:32.673Z,14.55
2022-09-10T04:43:32.664Z,14.50
2022-09-10T04:44:32.653Z,14.59
2022-09-10T04:45:32.683Z,14.60
2022-09-10T04:46:32.636Z,14.55
2022-09-10T04:47:32.639Z,14.55
2022-09-10T04:48:32.646Z,14.63
2022-09-10T04:49:32.616Z,14.60
2022-09-10T04:50:32.608Z,14.63
2022-09-10T04:51:32.595Z,14.70
2022-09-10T04:52:32.586Z,14.69
2022-09-10T04:53:32.600Z,14.72
2022-09-10T04:54:32.573Z,14.72
2022-09-10T04:55:32.564Z,14.73
2022-09-10T04:56:32.556Z,14.77
2022-09-10T04:57:32.552Z,14.78
2022-09-10T04:58:36.654Z,14.77
2022-09-10T04:59:34.541Z,14.70
2022-09-10T05:00:32.530Z,14.78
2022-09-10T05:01:32.523Z,14.81
2022-09-10T05:02:32.549Z,14.78
2022-09-10T05:03:32.519Z,14.70
2022-09-10T05:04:34.023Z,14.81
2022-09-10T05:05:32.491Z,14.85
2022-09-10T05:06:32.478Z,14.79
2022-09-10T05:07:32.504Z,14.79
2022-09-10T05:08:32.464Z,14.88
2022-09-10T05:09:32.459Z,14.91
2022-09-10T05:10:32.445Z,14.92
2022-09-10T05:11:32.462Z,14.96
2022-09-10T05:12:32.430Z,14.92
2022-09-10T05:13:32.423Z,14.86
2022-09-10T05:14:32.427Z,14.85
2022-09-10T05:15:32.407Z,14.88
2022-09-10T05:16:32.432Z,14.91
2022-09-10T05:17:32.387Z,15.04
2022-09-10T05:18:32.381Z,15.06
2022-09-10T05:19:32.388Z,15.02
2022-09-10T05:20:32.364Z,15.07
2022-09-10T05:21:32.366Z,15.14
2022-09-10T05:22:38.432Z,15.24
2022-09-10T05:23:34.361Z,15.40
2022-09-10T05:24:32.334Z,15.59
2022-09-10T05:25:32.330Z,15.57
2022-09-10T05:26:32.319Z,15.72
2022-09-10T05:27:32.308Z,15.68
2022-09-10T05:28:32.302Z,15.92
2022-09-10T05:29:32.293Z,15.92
2022-09-10T05:30:32.288Z,15.91
2022-09-10T05:31:32.290Z,15.92
2022-09-10T05:32:32.259Z,15.82
2022-09-10T05:33:33.254Z,15.94
2022-09-10T05:34:32.254Z,15.84
2022-09-10T05:35:32.251Z,15.91
2022-09-10T05:36:32.233Z,15.98
2022-09-10T05:37:32.224Z,15.98
2022-09-10T05:38:32.214Z,15.91
2022-09-10T05:39:32.342Z,15.84
2022-09-10T05:40:32.207Z,15.91
2022-09-10T05:41:32.190Z,15.91
2022-09-10T05:42:32.181Z,15.86
2022-09-10T05:43:32.176Z,16.05
2022-09-10T05:44:32.167Z,16.17
2022-09-10T05:45:32.193Z,16.13
2022-09-10T05:46:32.151Z,16.16
2022-09-10T05:47:32.144Z,16.29
2022-09-10T05:48:32.174Z,16.20
2022-09-10T05:49:32.129Z,16.17
2022-09-10T05:50:32.129Z,16.36
2022-09-10T05:51:32.119Z,16.39
2022-09-10T05:52:32.103Z,16.36
2022-09-10T05:53:32.110Z,16.38
2022-09-10T05:54:32.088Z,16.47
2022-09-10T05:55:32.078Z,16.41
2022-09-10T05:56:32.079Z,16.42
2022-09-10T05:57:32.064Z,16.56
2022-09-10T05:58:32.092Z,16.47
2022-09-10T05:59:32.050Z,16.56
2022-09-10T06:00:32.043Z,16.60
2022-09-10T06:01:32.054Z,16.61
2022-09-10T06:02:32.067Z,16.54
2022-09-10T06:03:32.023Z,16.51
2022-09-10T06:04:32.015Z,16.61
2022-09-10T06:05:32.005Z,16.64
2022-09-10T06:06:31.994Z,16.61
2022-09-10T06:07:31.988Z,16.61
2022-09-10T06:08:32.037Z,16.60
2022-09-10T06:09:31.975Z,16.66
2022-09-10T06:10:32.006Z,16.64
2022-09-10T06:11:31.948Z,16.58
2022-09-10T06:12:32.949Z,16.61
2022-09-10T06:13:32.550Z,16.69
2022-09-10T06:14:31.931Z,16.68
2022-09-10T06:15:31.926Z,16.72
2022-09-10T06:16:31.943Z,16.76
2022-09-10T06:17:31.908Z,16.83
2022-09-10T06:18:31.908Z,16.93
2022-09-10T06:19:31.899Z,16.90
2022-09-10T06:20:31.885Z,16.89
2022-09-10T06:21:31.876Z,16.90
2022-09-10T06:22:31.871Z,16.89
2022-09-10T06:23:31.922Z,16.91
2022-09-10T06:24:31.857Z,16.91
2022-09-10T06:25:31.846Z,17.02
2022-09-10T06:26:31.839Z,17.04
2022-09-10T06:27:31.966Z,16.97
2022-09-10T06:28:31.855Z,16.96
2022-09-10T06:29:31.822Z,17.02
2022-09-10T06:30:31.834Z,17.06
2022-09-10T06:31:31.801Z,17.16
2022-09-10T06:32:31.785Z,17.05
2022-09-10T06:33:31.785Z,16.97
2022-09-10T06:34:31.771Z,16.97
2022-09-10T06:35:31.765Z,16.97
2022-09-10T06:36:31.752Z,17.05
2022-09-10T06:37:31.835Z,17.06
2022-09-10T06:38:31.797Z,16.99
2022-09-10T06:39:31.734Z,17.09
2022-09-10T06:40:32.157Z,17.14
2022-09-10T06:41:31.721Z,17.23
2022-09-10T06:42:31.740Z,17.22
2022-09-10T06:43:31.762Z,17.29
2022-09-10T06:44:31.695Z,17.31
2022-09-10T06:45:31.712Z,17.42
2022-09-10T06:47:10.727Z,17.41
2022-09-10T06:48:38.604Z,17.42
2022-09-10T06:49:33.657Z,17.56
2022-09-10T06:50:31.659Z,17.45
2022-09-10T06:51:31.642Z,17.36
2022-09-10T06:52:31.637Z,17.36
2022-09-10T06:53:31.628Z,17.38
2022-09-10T06:54:31.614Z,17.42
2022-09-10T06:55:31.625Z,17.42
2022-09-10T06:56:31.595Z,17.63
2022-09-10T06:57:31.594Z,17.63
2022-09-10T06:58:31.685Z,17.51
2022-09-10T06:59:31.581Z,17.63
2022-09-10T07:00:31.564Z,17.57
2022-09-10T07:01:31.646Z,17.49
2022-09-10T07:02:32.120Z,17.49
2022-09-10T07:03:31.554Z,17.49
2022-09-10T07:04:31.550Z,17.48
2022-09-10T07:05:31.533Z,17.51
2022-09-10T07:06:31.535Z,17.56
2022-09-10T07:07:31.511Z,17.56
2022-09-10T07:08:31.524Z,17.49
2022-09-10T07:09:31.495Z,17.51
2022-09-10T07:10:31.502Z,17.56
2022-09-10T07:11:31.491Z,17.56
2022-09-10T07:12:31.474Z,17.59
2022-09-10T07:13:31.460Z,17.60
2022-09-10T07:14:32.456Z,17.67
2022-09-10T07:15:31.483Z,17.63
2022-09-10T07:16:31.467Z,17.74
2022-09-10T07:17:32.152Z,17.74
2022-09-10T07:18:32.423Z,17.82
2022-09-10T07:19:31.421Z,17.79
2022-09-10T07:20:31.410Z,17.78
2022-09-10T07:21:31.406Z,17.74
2022-09-10T07:22:31.392Z,17.80
2022-09-10T07:23:31.382Z,17.95
2022-09-10T07:24:31.376Z,18.00
2022-09-10T07:25:31.372Z,18.00
2022-09-10T07:26:31.372Z,18.01
2022-09-10T07:27:31.355Z,18.05
2022-09-10T07:28:31.385Z,18.11
2022-09-10T07:29:31.439Z,18.25
2022-09-10T07:30:31.341Z,18.31
2022-09-10T07:31:31.330Z,18.26
2022-09-10T07:32:31.311Z,18.18
2022-09-10T07:33:31.301Z,18.23
2022-09-10T07:34:31.299Z,18.31
2022-09-10T07:35:31.312Z,18.23
2022-09-10T07:36:31.281Z,18.33
2022-09-10T07:37:31.278Z,18.45
2022-09-10T07:38:31.276Z,18.52
2022-09-10T07:39:31.253Z,18.60
2022-09-10T07:40:31.255Z,18.62
2022-09-10T07:41:31.251Z,18.70
2022-09-10T07:42:31.234Z,18.63
2022-09-10T07:43:31.225Z,18.63
2022-09-10T07:44:31.221Z,18.55
2022-09-10T07:45:31.241Z,18.40
2022-09-10T07:46:31.198Z,18.25
2022-09-10T07:47:31.189Z,18.33
2022-09-10T07:48:31.218Z,18.37
2022-09-10T07:49:31.174Z,18.34
2022-09-10T07:50:31.171Z,18.35
2022-09-10T07:51:31.161Z,18.35
2022-09-10T07:52:31.158Z,18.33
2022-09-10T07:53:31.654Z,18.35
2022-09-10T07:54:31.147Z,18.43
2022-09-10T07:55:31.139Z,18.41
2022-09-10T07:56:31.131Z,18.40
2022-09-10T07:57:31.116Z,18.44
2022-09-10T07:58:32.182Z,18.43
2022-09-10T07:59:31.100Z,18.45
2022-09-10T08:00:31.088Z,18.41
2022-09-10T08:01:31.113Z,18.38
2022-09-10T08:02:31.095Z,18.44
2022-09-10T08:03:31.067Z,18.34
2022-09-10T08:04:35.881Z,18.29
2022-09-10T08:05:33.047Z,18.35
2022-09-10T08:06:31.044Z,18.38
2022-09-10T08:07:31.036Z,18.37
2022-09-10T08:08:31.032Z,18.35
2022-09-10T08:09:31.014Z,18.41
2022-09-10T08:10:31.006Z,18.41
2022-09-10T08:11:30.998Z,18.43
2022-09-10T08:12:30.993Z,18.41
2022-09-10T08:13:30.988Z,18.35
2022-09-10T08:14:30.973Z,18.34
2022-09-10T08:15:30.976Z,18.25
2022-09-10T08:16:30.970Z,18.35
2022-09-10T08:17:31.039Z,18.29
2022-09-10T08:18:30.969Z,18.45
2022-09-10T08:19:30.946Z,18.52
2022-09-10T08:20:30.938Z,18.43
2022-09-10T08:21:30.929Z,18.38
2022-09-10T08:22:30.927Z,18.34
2022-09-10T08:23:30.904Z,18.34
2022-09-10T08:24:30.894Z,18.29
2022-09-10T08:25:30.899Z,18.44
2022-09-10T08:26:30.883Z,18.45
2022-09-10T08:27:31.676Z,18.49
2022-09-10T08:28:30.868Z,18.50
2022-09-10T08:29:30.855Z,18.31
2022-09-10T08:30:30.860Z,18.37
2022-09-10T08:31:30.838Z,18.31
2022-09-10T08:32:30.845Z,18.40
2022-09-10T08:33:30.841Z,18.35
2022-09-10T08:34:30.813Z,18.50
2022-09-10T08:35:30.815Z,18.44
2022-09-10T08:36:30.805Z,18.52
2022-09-10T08:37:30.797Z,18.56
2022-09-10T08:38:30.791Z,18.60
2022-09-10T08:39:30.776Z,18.53
2022-09-10T08:40:30.779Z,18.58
2022-09-10T08:41:30.764Z,18.47
2022-09-10T08:42:30.764Z,18.56
2022-09-10T08:43:30.756Z,18.56
2022-09-10T08:44:30.741Z,18.62
2022-09-10T08:45:30.772Z,18.55
2022-09-10T08:46:30.721Z,18.55
2022-09-10T08:47:30.739Z,18.71
2022-09-10T08:48:30.715Z,18.75
2022-09-10T08:49:30.696Z,18.78
2022-09-10T08:50:30.692Z,18.84
2022-09-10T08:51:30.688Z,18.74
2022-09-10T08:52:30.750Z,18.62
2022-09-10T08:53:30.666Z,18.71
2022-09-10T08:54:30.666Z,18.74
2022-09-10T08:55:30.653Z,18.83
2022-09-10T08:56:30.675Z,18.84
2022-09-10T08:57:30.661Z,18.75
2022-09-10T08:58:30.634Z,18.81
2022-09-10T08:59:30.622Z,18.80
2022-09-10T09:00:30.617Z,18.83
2022-09-10T09:01:30.707Z,18.98
2022-09-10T09:02:47.832Z,19.07
2022-09-10T09:03:32.601Z,19.09
2022-09-10T09:04:30.589Z,19.19
2022-09-10T09:05:30.575Z,19.18
2022-09-10T09:06:30.568Z,19.21
2022-09-10T09:07:30.566Z,19.27
2022-09-10T09:08:30.563Z,19.36
2022-09-10T09:09:31.199Z,19.45
2022-09-10T09:10:30.529Z,19.62
2022-09-10T09:11:30.537Z,19.63
2022-09-10T09:12:30.525Z,19.66
2022-09-10T09:13:30.512Z,19.74
2022-09-10T09:14:30.503Z,19.81
2022-09-10T09:15:30.542Z,19.95
2022-09-10T09:16:30.482Z,19.96
2022-09-10T09:17:31.499Z,20.00
2022-09-10T09:18:30.480Z,20.07
2022-09-10T09:19:30.460Z,20.04
2022-09-10T09:20:30.458Z,19.96
2022-09-10T09:21:30.452Z,19.81
2022-09-10T09:22:30.493Z,19.84
2022-09-10T09:23:30.435Z,19.69
2022-09-10T09:24:30.437Z,19.63
2022-09-10T09:25:30.426Z,19.67
2022-09-10T09:26:30.418Z,19.58
2022-09-10T09:27:30.403Z,19.76
2022-09-10T09:28:30.390Z,19.86
2022-09-10T09:29:31.110Z,19.85
2022-09-10T09:30:30.370Z,19.82
2022-09-10T09:31:30.417Z,20.02
2022-09-10T09:32:30.393Z,20.24
2022-09-10T09:33:30.348Z,20.34
2022-09-10T09:34:31.110Z,20.41
2022-09-10T09:35:30.332Z,20.41
2022-09-10T09:36:30.323Z,20.63
2022-09-10T09:37:30.328Z,20.50
2022-09-10T09:38:30.311Z,20.62
2022-09-10T09:39:30.314Z,20.72
2022-09-10T09:40:30.294Z,20.81
2022-09-10T09:41:30.289Z,20.87
2022-09-10T09:42:30.285Z,20.78
2022-09-10T09:43:30.276Z,20.87
2022-09-10T09:44:30.264Z,21.03
2022-09-10T09:45:30.356Z,20.97
2022-09-10T09:46:30.253Z,21.07
2022-09-10T09:47:30.344Z,20.90
2022-09-10T09:48:30.238Z,20.92
2022-09-10T09:49:30.222Z,20.81
2022-09-10T09:50:30.208Z,20.70
2022-09-10T09:51:31.210Z,20.52
2022-09-10T09:52:30.207Z,20.62
2022-09-10T09:53:30.203Z,20.81
2022-09-10T09:55:12.572Z,20.87
2022-09-10T09:55:32.178Z,21.03
2022-09-10T09:56:30.196Z,21.12
2022-09-10T09:57:30.177Z,21.15
2022-09-10T09:58:30.156Z,21.17
2022-09-10T09:59:30.149Z,21.21
2022-09-10T10:00:30.146Z,21.36
2022-09-10T10:01:30.151Z,21.35
2022-09-10T10:02:30.156Z,21.51
2022-09-10T10:03:30.113Z,21.67
2022-09-10T10:04:30.114Z,21.80
2022-09-10T10:05:30.102Z,21.80
2022-09-10T10:06:30.101Z,21.83
2022-09-10T10:07:30.087Z,21.83
2022-09-10T10:08:30.085Z,21.66
2022-09-10T10:09:30.075Z,21.54
2022-09-10T10:10:30.060Z,21.48
2022-09-10T10:11:30.065Z,21.57
2022-09-10T10:12:30.039Z,21.60
2022-09-10T10:13:30.049Z,21.83
2022-09-10T10:14:30.029Z,21.89
2022-09-10T10:15:30.052Z,21.72
2022-09-10T10:16:30.024Z,21.64
2022-09-10T10:17:30.053Z,21.45
2022-09-10T10:18:29.999Z,21.21
2022-09-10T10:19:30.030Z,21.36
2022-09-10T10:20:29.980Z,21.55
2022-09-10T10:21:29.980Z,21.72
2022-09-10T10:22:29.976Z,21.88
2022-09-10T10:23:31.209Z,22.00
2022-09-10T10:24:30.952Z,22.22
2022-09-10T10:25:29.965Z,22.25
2022-09-10T10:26:29.954Z,22.26
2022-09-10T10:27:29.930Z,22.33
2022-09-10T10:28:29.928Z,22.08
2022-09-10T10:29:29.911Z,22.10
2022-09-10T10:30:29.911Z,22.23
2022-09-10T10:31:29.895Z,22.32
2022-09-10T10:32:29.888Z,22.47
2022-09-10T10:33:29.886Z,22.57
2022-09-10T10:34:29.874Z,22.57
2022-09-10T10:35:29.918Z,22.65
2022-09-10T10:36:29.862Z,22.66
2022-09-10T10:37:29.851Z,22.53
2022-09-10T10:38:29.841Z,22.41
2022-09-10T10:39:29.837Z,22.23
2022-09-10T10:40:29.830Z,21.99
2022-09-10T10:41:29.837Z,21.96
2022-09-10T10:42:30.709Z,21.92
2022-09-10T10:43:29.811Z,22.04
2022-09-10T10:44:29.797Z,22.10
2022-09-10T10:45:29.786Z,22.11
2022-09-10T10:46:29.816Z,22.04
2022-09-10T10:47:29.773Z,22.14
2022-09-10T10:48:29.759Z,22.15
2022-09-10T10:49:29.748Z,22.22
2022-09-10T10:50:29.740Z,22.13
2022-09-10T10:51:29.744Z,22.22
2022-09-10T10:52:29.735Z,22.14
2022-09-10T10:53:29.723Z,22.00
2022-09-10T10:54:29.716Z,21.76
2022-09-10T10:55:29.705Z,21.57
2022-09-10T10:56:29.710Z,21.60
2022-09-10T10:57:29.771Z,21.67
2022-09-10T10:58:29.683Z,21.69
2022-09-10T10:59:29.693Z,21.92
2022-09-10T11:00:29.664Z,21.93
2022-09-10T11:01:29.706Z,22.17
2022-09-10T11:02:29.684Z,22.22
2022-09-10T11:03:29.640Z,22.23
2022-09-10T11:04:29.639Z,22.23
2022-09-10T11:05:29.630Z,22.17
2022-09-10T11:06:29.633Z,22.25
2022-09-10T11:07:29.603Z,22.29
2022-09-10T11:08:29.598Z,22.43
2022-09-10T11:09:30.220Z,22.36
2022-09-10T11:10:29.591Z,22.20
2022-09-10T11:11:29.586Z,22.15
2022-09-10T11:12:29.566Z,22.08
2022-09-10T11:13:30.228Z,22.10
2022-09-10T11:14:29.574Z,22.13
2022-09-10T11:15:29.541Z,22.10
2022-09-10T11:16:29.534Z,21.93
2022-09-10T11:17:29.531Z,21.92
2022-09-10T11:18:29.523Z,21.83
2022-09-10T11:19:29.521Z,21.77
2022-09-10T11:20:30.265Z,21.80
2022-09-10T11:21:30.498Z,21.95
2022-09-10T11:22:29.499Z,21.88
2022-09-10T11:23:29.479Z,21.85
2022-09-10T11:24:29.491Z,21.69
2022-09-10T11:25:29.462Z,21.55
2022-09-10T11:26:29.459Z,21.50
2022-09-10T11:27:29.448Z,21.48
2022-09-10T11:28:29.441Z,21.33
2022-09-10T11:29:29.446Z,21.27
2022-09-10T11:30:29.436Z,21.21
2022-09-10T11:31:29.433Z,21.29
2022-09-10T11:32:29.412Z,21.29
2022-09-10T11:33:29.393Z,21.20
2022-09-10T11:34:29.400Z,21.21
2022-09-10T11:35:29.383Z,21.06
2022-09-10T11:36:29.371Z,21.18
2022-09-10T11:37:29.362Z,21.06
2022-09-10T11:38:29.356Z,20.97
2022-09-10T11:39:29.345Z,20.96
2022-09-10T11:40:29.377Z,20.90
2022-09-10T11:41:29.330Z,20.80
2022-09-10T11:42:29.329Z,20.74
2022-09-10T11:43:29.327Z,20.92
2022-09-10T11:44:32.355Z,20.87
2022-09-10T11:45:30.309Z,20.78
2022-09-10T11:46:30.303Z,21.03
2022-09-10T11:47:29.301Z,21.00
2022-09-10T11:48:33.293Z,21.02
2022-09-10T11:49:31.234Z,20.99
2022-09-10T11:50:34.539Z,20.84
2022-09-10T11:51:30.247Z,20.84
2022-09-10T11:52:29.427Z,20.90
2022-09-10T11:54:01.700Z,20.88
2022-09-10T11:54:29.223Z,20.93
2022-09-10T11:55:29.225Z,20.84
2022-09-10T11:56:29.208Z,20.75
2022-09-10T11:57:30.215Z,20.78
2022-09-10T11:58:29.202Z,20.80
2022-09-10T11:59:29.194Z,20.80
2022-09-10T12:00:29.181Z,20.78
2022-09-10T12:01:29.171Z,20.88
2022-09-10T12:02:29.226Z,21.03
2022-09-10T12:03:29.724Z,20.95
2022-09-10T12:04:29.178Z,20.81
2022-09-10T12:05:29.145Z,20.90
2022-09-10T12:06:29.131Z,20.99
2022-09-10T12:07:29.134Z,21.18
2022-09-10T12:08:29.118Z,21.12
2022-09-10T12:09:29.143Z,21.09
2022-09-10T12:10:29.106Z,21.03
2022-09-10T12:11:29.107Z,21.07
2022-09-10T12:12:29.084Z,21.21
2022-09-10T12:13:29.078Z,21.22
2022-09-10T12:14:29.108Z,21.51
2022-09-10T12:15:29.056Z,21.45
2022-09-10T12:16:29.056Z,21.45
2022-09-10T12:17:29.081Z,21.55
2022-09-10T12:18:29.057Z,21.54
2022-09-10T12:19:29.345Z,21.43
2022-09-10T12:20:29.020Z,21.46
2022-09-10T12:21:29.025Z,21.29
2022-09-10T12:22:29.007Z,21.29
2022-09-10T12:23:28.991Z,21.40
2022-09-10T12:24:28.993Z,21.64
2022-09-10T12:25:33.629Z,21.73
2022-09-10T12:26:30.972Z,21.58
2022-09-10T12:27:28.973Z,21.33
2022-09-10T12:28:29.768Z,21.29
2022-09-10T12:29:28.951Z,21.20
2022-09-10T12:30:28.938Z,21.17
2022-09-10T12:31:29.002Z,21.05
2022-09-10T12:32:28.929Z,21.14
2022-09-10T12:33:28.919Z,21.15
2022-09-10T12:34:28.908Z,21.06
2022-09-10T12:35:28.901Z,21.06
2022-09-10T12:36:28.900Z,20.85
2022-09-10T12:37:28.889Z,20.66
2022-09-10T12:38:28.883Z,20.60
2022-09-10T12:39:28.874Z,20.55
2022-09-10T12:40:28.863Z,20.56
2022-09-10T12:41:28.853Z,20.44
2022-09-10T12:42:28.860Z,20.31
2022-09-10T12:43:28.839Z,20.36
2022-09-10T12:44:28.837Z,20.44
2022-09-10T12:45:28.857Z,20.41
2022-09-10T12:46:28.866Z,20.56
2022-09-10T12:47:28.848Z,20.56
2022-09-10T12:48:28.800Z,20.47
2022-09-10T12:49:28.800Z,20.41
2022-09-10T12:50:28.803Z,20.31
2022-09-10T12:51:28.780Z,20.44
2022-09-10T12:52:29.294Z,20.50
2022-09-10T12:53:28.796Z,20.56
2022-09-10T12:54:28.758Z,20.48